sensor_id;sensor_type;location;lat;lon;timestamp;temperature;humidity
52709;DHT22;38606;52.986;6.980;2022-09-09T00:06:33;14.90;99.90
52709;DHT22;38606;52.986;6.980;2022-09-09T00:09:10;14.60;99.90
52709;DHT22;38606;52.986;6.980;2022-09-09T00:11:42;15.00;99.90
52709;DHT22;38606;52.986;6.980;2022-09-09T00:14:15;15.10;99.90
52709;DHT22;38606;52.986;6.980;2022-09-09T00:16:42;14.80;99.90
52709;DHT22;38606;52.986;6.980;2022-09-09T00:19:24;14.90;99.90
52709;DHT22;38606;52.986;6.980;2022-09-09T00:24:32;14.70;99.90
52709;DHT22;38606;52.986;6.980;2022-09-09T00:27:09;14.70;99.90
52709;DHT22;38606;52.986;6.980;2022-09-09T00:29:44;14.70;99.90
52709;DHT22;38606;52.986;6.980;2022-09-09T00:32:16;14.90;99.90
52709;DHT22;38606;52.986;6.980;2022-09-09T00:34:48;14.70;99.90
52709;DHT22;38606;52.986;6.980;2022-09-09T00:37:14;14.90;99.90
52709;DHT22;38606;52.986;6.980;2022-09-09T00:39:45;15.00;99.90
52709;DHT22;38606;52.986;6.980;2022-09-09T00:47:38;14.90;99.90
52709;DHT22;38606;52.986;6.980;2022-09-09T00:58:07;14.90;99.90
52709;DHT22;38606;52.986;6.980;2022-09-09T01:00:55;14.70;99.90
52709;DHT22;38606;52.986;6.980;2022-09-09T01:18:02;14.90;99.90
52709;DHT22;38606;52.986;6.980;2022-09-09T01:20:33;14.90;99.90
52709;DHT22;38606;52.986;6.980;2022-09-09T01:23:26;14.60;99.90
52709;DHT22;38606;52.986;6.980;2022-09-09T01:28:40;14.60;99.90
52709;DHT22;38606;52.986;6.980;2022-09-09T01:31:09;14.90;99.90
52709;DHT22;38606;52.986;6.980;2022-09-09T01:33:37;14.70;99.90
52709;DHT22;38606;52.986;6.980;2022-09-09T01:36:31;14.70;99.90
52709;DHT22;38606;52.986;6.980;2022-09-09T01:38:59;14.80;99.90
52709;DHT22;38606;52.986;6.980;2022-09-09T01:41:24;14.60;99.90
52709;DHT22;38606;52.986;6.980;2022-09-09T01:43:50;14.70;99.90
52709;DHT22;38606;52.986;6.980;2022-09-09T01:46:18;15.40;99.90
52709;DHT22;38606;52.986;6.980;2022-09-09T01:48:47;14.80;99.90
52709;DHT22;38606;52.986;6.980;2022-09-09T01:51:13;15.80;99.90
52709;DHT22;38606;52.986;6.980;2022-09-09T01:53:41;14.90;99.90
52709;DHT22;38606;52.986;6.980;2022-09-09T01:58:45;14.90;99.90
52709;DHT22;38606;52.986;6.980;2022-09-09T02:03:57;14.90;99.90
52709;DHT22;38606;52.986;6.980;2022-09-09T02:08:55;15.00;99.90
52709;DHT22;38606;52.986;6.980;2022-09-09T02:11:23;14.70;99.90
52709;DHT22;38606;52.986;6.980;2022-09-09T02:13:54;15.00;99.90
52709;DHT22;38606;52.986;6.980;2022-09-09T02:21:34;15.10;99.90
52709;DHT22;38606;52.986;6.980;2022-09-09T02:24:04;15.30;99.90
52709;DHT22;38606;52.986;6.980;2022-09-09T02:26:33;15.10;99.90
52709;DHT22;38606;52.986;6.980;2022-09-09T02:29:03;14.80;99.90
52709;DHT22;38606;52.986;6.980;2022-09-09T02:31:30;15.20;99.90
52709;DHT22;38606;52.986;6.980;2022-09-09T02:34:00;15.10;99.90
52709;DHT22;38606;52.986;6.980;2022-09-09T02:36:31;15.00;99.90
52709;DHT22;38606;52.986;6.980;2022-09-09T02:38:58;15.10;99.90
52709;DHT22;38606;52.986;6.980;2022-09-09T02:41:38;15.20;99.90
52709;DHT22;38606;52.986;6.980;2022-09-09T02:44:12;15.10;99.90
52709;DHT22;38606;52.986;6.980;2022-09-09T02:49:16;15.10;99.90
52709;DHT22;38606;52.986;6.980;2022-09-09T02:51:46;15.10;99.90
52709;DHT22;38606;52.986;6.980;2022-09-09T02:56:51;16.40;99.90
52709;DHT22;38606;52.986;6.980;2022-09-09T02:59:18;15.20;99.90
52709;DHT22;38606;52.986;6.980;2022-09-09T03:01:44;15.20;99.90
52709;DHT22;38606;52.986;6.980;2022-09-09T03:04:10;15.30;99.90
52709;DHT22;38606;52.986;6.980;2022-09-09T03:06:36;15.10;99.90
52709;DHT22;38606;52.986;6.980;2022-09-09T03:09:02;15.40;99.90
52709;DHT22;38606;52.986;6.980;2022-09-09T03:11:28;15.10;99.90
52709;DHT22;38606;52.986;6.980;2022-09-09T03:13:54;15.40;99.90
52709;DHT22;38606;52.986;6.980;2022-09-09T03:16:22;15.40;99.90
52709;DHT22;38606;52.986;6.980;2022-09-09T03:18:48;15.20;99.90
52709;DHT22;38606;52.986;6.980;2022-09-09T03:21:14;15.30;99.90
52709;DHT22;38606;52.986;6.980;2022-09-09T03:23:40;15.40;99.90
52709;DHT22;38606;52.986;6.980;2022-09-09T03:26:06;15.30;99.90
52709;DHT22;38606;52.986;6.980;2022-09-09T03:28:32;15.30;99.90
52709;DHT22;38606;52.986;6.980;2022-09-09T03:31:00;15.40;99.90
52709;DHT22;38606;52.986;6.980;2022-09-09T03:33:25;15.30;99.90
52709;DHT22;38606;52.986;6.980;2022-09-09T03:35:51;15.20;99.90
52709;DHT22;38606;52.986;6.980;2022-09-09T03:38:17;15.40;99.90
52709;DHT22;38606;52.986;6.980;2022-09-09T03:40:53;15.30;99.90
52709;DHT22;38606;52.986;6.980;2022-09-09T03:43:26;15.30;99.90
52709;DHT22;38606;52.986;6.980;2022-09-09T03:45:53;15.40;99.90
52709;DHT22;38606;52.986;6.980;2022-09-09T03:48:22;15.10;99.90
52709;DHT22;38606;52.986;6.980;2022-09-09T03:50:50;15.40;99.90
52709;DHT22;38606;52.986;6.980;2022-09-09T03:53:18;15.40;99.90
52709;DHT22;38606;52.986;6.980;2022-09-09T03:55:49;15.50;99.90
52709;DHT22;38606;52.986;6.980;2022-09-09T03:58:16;15.40;99.90
52709;DHT22;38606;52.986;6.980;2022-09-09T04:00:56;15.70;99.90
52709;DHT22;38606;52.986;6.980;2022-09-09T04:03:23;15.30;99.90
52709;DHT22;38606;52.986;6.980;2022-09-09T04:05:51;15.60;99.90
52709;DHT22;38606;52.986;6.980;2022-09-09T04:08:18;15.50;99.90
52709;DHT22;38606;52.986;6.980;2022-09-09T04:10:48;15.60;99.90
52709;DHT22;38606;52.986;6.980;2022-09-09T04:13:15;15.50;99.90
52709;DHT22;38606;52.986;6.980;2022-09-09T04:15:44;15.30;99.90
52709;DHT22;38606;52.986;6.980;2022-09-09T04:18:10;15.20;99.90
52709;DHT22;38606;52.986;6.980;2022-09-09T04:20:37;15.30;99.90
52709;DHT22;38606;52.986;6.980;2022-09-09T04:23:04;15.10;99.90
52709;DHT22;38606;52.986;6.980;2022-09-09T04:25:30;15.50;99.90
52709;DHT22;38606;52.986;6.980;2022-09-09T04:27:57;15.40;99.90
52709;DHT22;38606;52.986;6.980;2022-09-09T04:30:24;15.30;99.90
52709;DHT22;38606;52.986;6.980;2022-09-09T04:32:50;15.30;99.90
52709;DHT22;38606;52.986;6.980;2022-09-09T04:35:16;15.40;99.90
52709;DHT22;38606;52.986;6.980;2022-09-09T04:37:42;15.30;99.90
52709;DHT22;38606;52.986;6.980;2022-09-09T04:40:08;15.60;99.90
52709;DHT22;38606;52.986;6.980;2022-09-09T04:42:39;15.20;99.90
52709;DHT22;38606;52.986;6.980;2022-09-09T04:45:06;15.30;99.90
52709;DHT22;38606;52.986;6.980;2022-09-09T04:47:36;15.40;99.90
52709;DHT22;38606;52.986;6.980;2022-09-09T04:50:02;15.10;99.90
52709;DHT22;38606;52.986;6.980;2022-09-09T04:52:28;15.50;99.90
52709;DHT22;38606;52.986;6.980;2022-09-09T04:54:54;15.10;99.90
52709;DHT22;38606;52.986;6.980;2022-09-09T04:57:20;15.20;99.90
52709;DHT22;38606;52.986;6.980;2022-09-09T04:59:45;15.20;99.90
52709;DHT22;38606;52.986;6.980;2022-09-09T05:02:11;15.30;99.90
52709;DHT22;38606;52.986;6.980;2022-09-09T05:04:37;15.10;99.90
52709;DHT22;38606;52.986;6.980;2022-09-09T05:07:03;15.40;99.90
52709;DHT22;38606;52.986;6.980;2022-09-09T05:09:29;15.20;99.90
52709;DHT22;38606;52.986;6.980;2022-09-09T05:11:55;15.30;99.90
52709;DHT22;38606;52.986;6.980;2022-09-09T05:14:21;15.30;99.90
52709;DHT22;38606;52.986;6.980;2022-09-09T05:16:48;15.20;99.90
52709;DHT22;38606;52.986;6.980;2022-09-09T05:19:15;15.20;99.90
52709;DHT22;38606;52.986;6.980;2022-09-09T05:21:44;16.10;99.90
52709;DHT22;38606;52.986;6.980;2022-09-09T05:24:10;15.30;99.90
52709;DHT22;38606;52.986;6.980;2022-09-09T05:26:36;15.30;99.90
52709;DHT22;38606;52.986;6.980;2022-09-09T05:29:02;15.40;99.90
52709;DHT22;38606;52.986;6.980;2022-09-09T05:31:29;15.30;99.90
52709;DHT22;38606;52.986;6.980;2022-09-09T05:33:55;15.40;99.90
52709;DHT22;38606;52.986;6.980;2022-09-09T05:36:22;15.20;99.90
52709;DHT22;38606;52.986;6.980;2022-09-09T05:38:48;15.20;99.90
52709;DHT22;38606;52.986;6.980;2022-09-09T05:41:15;15.50;99.90
52709;DHT22;38606;52.986;6.980;2022-09-09T05:43:41;15.30;99.90
52709;DHT22;38606;52.986;6.980;2022-09-09T05:46:11;15.30;99.90
52709;DHT22;38606;52.986;6.980;2022-09-09T05:48:42;15.20;99.90
52709;DHT22;38606;52.986;6.980;2022-09-09T05:51:13;15.30;99.90
52709;DHT22;38606;52.986;6.980;2022-09-09T05:53:41;15.10;99.90
52709;DHT22;38606;52.986;6.980;2022-09-09T05:56:09;15.00;99.90
52709;DHT22;38606;52.986;6.980;2022-09-09T05:58:40;15.10;99.90
52709;DHT22;38606;52.986;6.980;2022-09-09T06:01:07;15.10;99.90
52709;DHT22;38606;52.986;6.980;2022-09-09T06:03:38;15.60;99.90
52709;DHT22;38606;52.986;6.980;2022-09-09T06:06:06;15.20;99.90
52709;DHT22;38606;52.986;6.980;2022-09-09T06:08:33;15.30;99.90
52709;DHT22;38606;52.986;6.980;2022-09-09T06:11:04;15.20;99.90
52709;DHT22;38606;52.986;6.980;2022-09-09T06:13:30;15.10;99.90
52709;DHT22;38606;52.986;6.980;2022-09-09T06:15:57;15.30;99.90
52709;DHT22;38606;52.986;6.980;2022-09-09T06:18:24;15.30;99.90
52709;DHT22;38606;52.986;6.980;2022-09-09T06:20:55;15.40;99.90
52709;DHT22;38606;52.986;6.980;2022-09-09T06:23:21;15.40;99.90
52709;DHT22;38606;52.986;6.980;2022-09-09T06:25:47;15.40;99.90
52709;DHT22;38606;52.986;6.980;2022-09-09T06:28:14;15.40;99.90
52709;DHT22;38606;52.986;6.980;2022-09-09T06:30:41;15.60;99.90
52709;DHT22;38606;52.986;6.980;2022-09-09T06:33:06;15.40;99.90
52709;DHT22;38606;52.986;6.980;2022-09-09T06:35:32;15.60;99.90
52709;DHT22;38606;52.986;6.980;2022-09-09T06:37:58;15.70;99.90
52709;DHT22;38606;52.986;6.980;2022-09-09T06:40:24;15.80;99.90
52709;DHT22;38606;52.986;6.980;2022-09-09T06:42:50;15.50;99.90
52709;DHT22;38606;52.986;6.980;2022-09-09T06:45:16;15.80;99.90
52709;DHT22;38606;52.986;6.980;2022-09-09T06:47:43;16.00;99.90
52709;DHT22;38606;52.986;6.980;2022-09-09T06:50:09;16.20;99.90
52709;DHT22;38606;52.986;6.980;2022-09-09T06:52:37;16.10;99.90
52709;DHT22;38606;52.986;6.980;2022-09-09T06:55:03;16.30;99.90
52709;DHT22;38606;52.986;6.980;2022-09-09T06:57:29;16.30;99.90
52709;DHT22;38606;52.986;6.980;2022-09-09T06:59:54;16.10;99.90
52709;DHT22;38606;52.986;6.980;2022-09-09T07:02:20;16.60;99.90
52709;DHT22;38606;52.986;6.980;2022-09-09T07:04:46;16.40;99.90
52709;DHT22;38606;52.986;6.980;2022-09-09T07:07:12;15.90;99.90
52709;DHT22;38606;52.986;6.980;2022-09-09T07:09:39;16.80;99.90
52709;DHT22;38606;52.986;6.980;2022-09-09T07:12:06;16.60;99.90
52709;DHT22;38606;52.986;6.980;2022-09-09T07:14:32;16.60;99.90
52709;DHT22;38606;52.986;6.980;2022-09-09T07:16:59;17.00;99.90
52709;DHT22;38606;52.986;6.980;2022-09-09T07:19:26;17.10;99.90
52709;DHT22;38606;52.986;6.980;2022-09-09T07:21:51;17.10;99.90
52709;DHT22;38606;52.986;6.980;2022-09-09T07:24:17;16.60;99.90
52709;DHT22;38606;52.986;6.980;2022-09-09T07:26:43;16.80;99.90
52709;DHT22;38606;52.986;6.980;2022-09-09T07:29:09;16.70;99.90
52709;DHT22;38606;52.986;6.980;2022-09-09T07:31:37;16.80;99.90
52709;DHT22;38606;52.986;6.980;2022-09-09T07:34:04;17.00;99.90
52709;DHT22;38606;52.986;6.980;2022-09-09T07:36:33;17.00;99.90
52709;DHT22;38606;52.986;6.980;2022-09-09T07:39:01;18.40;99.90
52709;DHT22;38606;52.986;6.980;2022-09-09T07:41:48;17.10;99.90
52709;DHT22;38606;52.986;6.980;2022-09-09T07:44:19;17.20;99.90
52709;DHT22;38606;52.986;6.980;2022-09-09T07:46:49;17.20;99.90
52709;DHT22;38606;52.986;6.980;2022-09-09T07:49:15;17.10;99.90
52709;DHT22;38606;52.986;6.980;2022-09-09T07:51:43;17.40;99.90
52709;DHT22;38606;52.986;6.980;2022-09-09T07:54:12;17.40;99.90
52709;DHT22;38606;52.986;6.980;2022-09-09T07:56:39;17.40;99.90
52709;DHT22;38606;52.986;6.980;2022-09-09T07:59:05;17.30;99.90
52709;DHT22;38606;52.986;6.980;2022-09-09T08:01:33;17.50;99.90
52709;DHT22;38606;52.986;6.980;2022-09-09T08:04:04;18.10;99.90
52709;DHT22;38606;52.986;6.980;2022-09-09T08:06:35;18.00;99.90
52709;DHT22;38606;52.986;6.980;2022-09-09T08:09:00;18.20;99.90
52709;DHT22;38606;52.986;6.980;2022-09-09T08:11:28;18.20;99.90
52709;DHT22;38606;52.986;6.980;2022-09-09T08:13:55;18.70;99.90
52709;DHT22;38606;52.986;6.980;2022-09-09T08:16:23;18.80;99.90
52709;DHT22;38606;52.986;6.980;2022-09-09T08:18:50;18.70;99.90
52709;DHT22;38606;52.986;6.980;2022-09-09T08:21:20;18.80;99.90
52709;DHT22;38606;52.986;6.980;2022-09-09T08:23:47;19.00;99.90
52709;DHT22;38606;52.986;6.980;2022-09-09T08:26:18;19.30;99.90
52709;DHT22;38606;52.986;6.980;2022-09-09T08:28:53;19.40;99.90
52709;DHT22;38606;52.986;6.980;2022-09-09T08:31:21;19.50;99.90
52709;DHT22;38606;52.986;6.980;2022-09-09T08:33:47;19.50;99.90
52709;DHT22;38606;52.986;6.980;2022-09-09T08:36:15;19.60;99.90
52709;DHT22;38606;52.986;6.980;2022-09-09T08:38:42;19.50;99.90
52709;DHT22;38606;52.986;6.980;2022-09-09T08:41:18;19.60;99.90
52709;DHT22;38606;52.986;6.980;2022-09-09T08:44:01;19.80;99.90
52709;DHT22;38606;52.986;6.980;2022-09-09T08:52:37;19.70;99.90
52709;DHT22;38606;52.986;6.980;2022-09-09T08:55:26;19.80;99.90
52709;DHT22;38606;52.986;6.980;2022-09-09T08:57:55;20.00;99.90
52709;DHT22;38606;52.986;6.980;2022-09-09T09:00:21;20.20;99.90
52709;DHT22;38606;52.986;6.980;2022-09-09T09:06:04;20.30;99.90
52709;DHT22;38606;52.986;6.980;2022-09-09T09:08:48;21.30;99.90
52709;DHT22;38606;52.986;6.980;2022-09-09T09:11:17;20.50;99.90
52709;DHT22;38606;52.986;6.980;2022-09-09T09:13:47;20.70;99.90
52709;DHT22;38606;52.986;6.980;2022-09-09T09:16:22;20.40;99.90
52709;DHT22;38606;52.986;6.980;2022-09-09T09:18:49;20.50;99.90
52709;DHT22;38606;52.986;6.980;2022-09-09T09:21:26;20.60;99.90
52709;DHT22;38606;52.986;6.980;2022-09-09T09:23:59;20.50;99.90
52709;DHT22;38606;52.986;6.980;2022-09-09T09:26:34;20.40;99.90
52709;DHT22;38606;52.986;6.980;2022-09-09T09:29:12;20.50;99.90
52709;DHT22;38606;52.986;6.980;2022-09-09T09:31:38;20.50;99.90
52709;DHT22;38606;52.986;6.980;2022-09-09T09:34:04;20.60;99.90
52709;DHT22;38606;52.986;6.980;2022-09-09T09:36:37;20.80;99.90
52709;DHT22;38606;52.986;6.980;2022-09-09T09:39:04;20.60;99.90
52709;DHT22;38606;52.986;6.980;2022-09-09T09:41:35;20.70;99.90
52709;DHT22;38606;52.986;6.980;2022-09-09T09:44:02;20.80;99.90
52709;DHT22;38606;52.986;6.980;2022-09-09T09:46:28;20.70;99.90
52709;DHT22;38606;52.986;6.980;2022-09-09T09:49:03;20.90;99.90
52709;DHT22;38606;52.986;6.980;2022-09-09T09:51:32;20.50;99.90
52709;DHT22;38606;52.986;6.980;2022-09-09T09:54:14;20.70;99.90
52709;DHT22;38606;52.986;6.980;2022-09-09T09:56:42;20.80;99.90
52709;DHT22;38606;52.986;6.980;2022-09-09T10:01:53;20.90;99.90
52709;DHT22;38606;52.986;6.980;2022-09-09T10:04:21;20.90;99.90
52709;DHT22;38606;52.986;6.980;2022-09-09T10:06:49;21.00;99.90
52709;DHT22;38606;52.986;6.980;2022-09-09T10:09:28;20.90;99.90
52709;DHT22;38606;52.986;6.980;2022-09-09T10:14:38;21.20;99.90
52709;DHT22;38606;52.986;6.980;2022-09-09T10:22:35;21.10;99.90
52709;DHT22;38606;52.986;6.980;2022-09-09T10:25:31;21.30;99.90
52709;DHT22;38606;52.986;6.980;2022-09-09T10:33:25;21.60;99.90
52709;DHT22;38606;52.986;6.980;2022-09-09T10:35:57;21.80;99.90
52709;DHT22;38606;52.986;6.980;2022-09-09T10:38:30;21.70;99.90
52709;DHT22;38606;52.986;6.980;2022-09-09T10:47:20;22.00;99.90
52709;DHT22;38606;52.986;6.980;2022-09-09T10:53:03;21.80;99.90
52709;DHT22;38606;52.986;6.980;2022-09-09T10:55:50;21.90;99.90
52709;DHT22;38606;52.986;6.980;2022-09-09T10:58:27;21.90;99.90
52709;DHT22;38606;52.986;6.980;2022-09-09T11:00:58;21.80;99.90
52709;DHT22;38606;52.986;6.980;2022-09-09T11:03:28;21.70;99.90
52709;DHT22;38606;52.986;6.980;2022-09-09T11:06:06;22.00;99.90
52709;DHT22;38606;52.986;6.980;2022-09-09T11:08:38;22.00;99.90
52709;DHT22;38606;52.986;6.980;2022-09-09T11:11:20;22.00;99.90
52709;DHT22;38606;52.986;6.980;2022-09-09T11:21:53;22.30;99.90
52709;DHT22;38606;52.986;6.980;2022-09-09T11:27:08;22.40;99.90
52709;DHT22;38606;52.986;6.980;2022-09-09T11:38:20;22.20;99.90
52709;DHT22;38606;52.986;6.980;2022-09-09T11:40:53;21.80;99.90
52709;DHT22;38606;52.986;6.980;2022-09-09T11:43:32;21.90;99.90
52709;DHT22;38606;52.986;6.980;2022-09-09T11:46:03;22.20;99.90
52709;DHT22;38606;52.986;6.980;2022-09-09T11:48:40;22.40;99.90
52709;DHT22;38606;52.986;6.980;2022-09-09T11:54:00;22.40;99.90
52709;DHT22;38606;52.986;6.980;2022-09-09T11:56:44;22.40;99.90
52709;DHT22;38606;52.986;6.980;2022-09-09T12:02:00;22.30;99.90
52709;DHT22;38606;52.986;6.980;2022-09-09T12:04:47;22.40;99.90
52709;DHT22;38606;52.986;6.980;2022-09-09T12:07:41;22.40;99.90
52709;DHT22;38606;52.986;6.980;2022-09-09T12:12:38;22.20;99.90
52709;DHT22;38606;52.986;6.980;2022-09-09T12:17:42;22.30;99.90
52709;DHT22;38606;52.986;6.980;2022-09-09T12:26:06;22.30;99.90
52709;DHT22;38606;52.986;6.980;2022-09-09T12:28:50;22.50;99.90
52709;DHT22;38606;52.986;6.980;2022-09-09T12:34:48;22.60;99.90
52709;DHT22;38606;52.986;6.980;2022-09-09T12:36:55;22.50;99.90
52709;DHT22;38606;52.986;6.980;2022-09-09T12:39:36;22.50;99.90
52709;DHT22;38606;52.986;6.980;2022-09-09T12:42:04;22.50;99.90
52709;DHT22;38606;52.986;6.980;2022-09-09T12:44:30;22.50;99.90
52709;DHT22;38606;52.986;6.980;2022-09-09T12:47:01;22.70;99.90
52709;DHT22;38606;52.986;6.980;2022-09-09T12:49:37;22.80;99.90
52709;DHT22;38606;52.986;6.980;2022-09-09T12:52:07;22.60;99.90
52709;DHT22;38606;52.986;6.980;2022-09-09T12:54:35;22.90;99.90
52709;DHT22;38606;52.986;6.980;2022-09-09T12:57:02;23.10;99.90
52709;DHT22;38606;52.986;6.980;2022-09-09T12:59:40;22.70;99.90
52709;DHT22;38606;52.986;6.980;2022-09-09T13:02:25;22.60;99.90
52709;DHT22;38606;52.986;6.980;2022-09-09T13:04:52;22.80;99.90
52709;DHT22;38606;52.986;6.980;2022-09-09T13:07:19;22.60;99.90
52709;DHT22;38606;52.986;6.980;2022-09-09T13:09:46;22.90;99.90
52709;DHT22;38606;52.986;6.980;2022-09-09T13:12:21;22.80;99.90
52709;DHT22;38606;52.986;6.980;2022-09-09T13:14:50;22.80;99.90
52709;DHT22;38606;52.986;6.980;2022-09-09T13:17:21;22.80;99.90
52709;DHT22;38606;52.986;6.980;2022-09-09T13:19:48;22.70;99.90
52709;DHT22;38606;52.986;6.980;2022-09-09T13:25:00;23.00;99.90
52709;DHT22;38606;52.986;6.980;2022-09-09T13:27:37;22.60;99.90
52709;DHT22;38606;52.986;6.980;2022-09-09T13:30:30;22.70;99.90
52709;DHT22;38606;52.986;6.980;2022-09-09T13:33:06;22.30;99.90
52709;DHT22;38606;52.986;6.980;2022-09-09T13:38:21;20.00;99.90
52709;DHT22;38606;52.986;6.980;2022-09-09T13:41:08;22.20;99.90
52709;DHT22;38606;52.986;6.980;2022-09-09T13:43:42;22.10;99.90
52709;DHT22;38606;52.986;6.980;2022-09-09T13:46:31;21.10;99.90
52709;DHT22;38606;52.986;6.980;2022-09-09T13:49:40;21.60;99.90
52709;DHT22;38606;52.986;6.980;2022-09-09T13:51:49;21.40;99.90
52709;DHT22;38606;52.986;6.980;2022-09-09T13:54:17;21.30;99.90
52709;DHT22;38606;52.986;6.980;2022-09-09T13:56:44;21.40;99.90
52709;DHT22;38606;52.986;6.980;2022-09-09T13:59:15;21.20;99.90
52709;DHT22;38606;52.986;6.980;2022-09-09T14:01:41;21.00;99.90
52709;DHT22;38606;52.986;6.980;2022-09-09T14:04:07;21.00;99.90
52709;DHT22;38606;52.986;6.980;2022-09-09T14:06:38;20.90;99.90
52709;DHT22;38606;52.986;6.980;2022-09-09T14:09:12;20.70;99.90
52709;DHT22;38606;52.986;6.980;2022-09-09T14:11:38;20.80;99.90
52709;DHT22;38606;52.986;6.980;2022-09-09T14:14:04;20.90;99.90
52709;DHT22;38606;52.986;6.980;2022-09-09T14:16:30;20.70;99.90
52709;DHT22;38606;52.986;6.980;2022-09-09T14:18:56;20.80;99.90
52709;DHT22;38606;52.986;6.980;2022-09-09T14:21:23;21.20;99.90
52709;DHT22;38606;52.986;6.980;2022-09-09T14:23:49;21.20;99.90
52709;DHT22;38606;52.986;6.980;2022-09-09T14:26:14;21.30;99.90
52709;DHT22;38606;52.986;6.980;2022-09-09T14:28:40;21.40;99.90
52709;DHT22;38606;52.986;6.980;2022-09-09T14:31:06;21.60;99.90
52709;DHT22;38606;52.986;6.980;2022-09-09T14:33:32;21.20;99.90
52709;DHT22;38606;52.986;6.980;2022-09-09T14:35:59;21.50;99.90
52709;DHT22;38606;52.986;6.980;2022-09-09T14:38:29;21.50;99.90
52709;DHT22;38606;52.986;6.980;2022-09-09T14:40:55;21.50;99.90
52709;DHT22;38606;52.986;6.980;2022-09-09T14:43:21;21.60;99.90
52709;DHT22;38606;52.986;6.980;2022-09-09T14:45:47;21.90;99.90
52709;DHT22;38606;52.986;6.980;2022-09-09T14:48:17;21.80;99.90
52709;DHT22;38606;52.986;6.980;2022-09-09T14:50:43;21.60;99.90
52709;DHT22;38606;52.986;6.980;2022-09-09T14:53:09;21.40;99.90
52709;DHT22;38606;52.986;6.980;2022-09-09T14:55:36;21.10;99.90
52709;DHT22;38606;52.986;6.980;2022-09-09T14:58:02;20.80;99.90
52709;DHT22;38606;52.986;6.980;2022-09-09T15:00:28;20.60;99.90
52709;DHT22;38606;52.986;6.980;2022-09-09T15:02:54;20.40;99.90
52709;DHT22;38606;52.986;6.980;2022-09-09T15:05:20;20.30;99.90
52709;DHT22;38606;52.986;6.980;2022-09-09T15:07:46;20.00;99.90
52709;DHT22;38606;52.986;6.980;2022-09-09T15:10:13;20.10;99.90
52709;DHT22;38606;52.986;6.980;2022-09-09T15:12:39;19.90;99.90
52709;DHT22;38606;52.986;6.980;2022-09-09T15:15:05;19.70;99.90
52709;DHT22;38606;52.986;6.980;2022-09-09T15:17:31;19.30;99.90
52709;DHT22;38606;52.986;6.980;2022-09-09T15:19:57;19.50;99.90
52709;DHT22;38606;52.986;6.980;2022-09-09T15:22:23;19.40;99.90
52709;DHT22;38606;52.986;6.980;2022-09-09T15:24:50;19.60;99.90
52709;DHT22;38606;52.986;6.980;2022-09-09T15:27:15;19.50;99.90
52709;DHT22;38606;52.986;6.980;2022-09-09T15:29:41;19.30;99.90
52709;DHT22;38606;52.986;6.980;2022-09-09T15:32:07;19.60;99.90
52709;DHT22;38606;52.986;6.980;2022-09-09T15:34:33;19.60;99.90
52709;DHT22;38606;52.986;6.980;2022-09-09T15:36:59;19.70;99.90
52709;DHT22;38606;52.986;6.980;2022-09-09T15:39:28;19.30;99.90
52709;DHT22;38606;52.986;6.980;2022-09-09T15:41:54;19.50;99.90
52709;DHT22;38606;52.986;6.980;2022-09-09T15:44:19;19.60;99.90
52709;DHT22;38606;52.986;6.980;2022-09-09T15:46:52;19.50;99.90
52709;DHT22;38606;52.986;6.980;2022-09-09T15:49:26;19.70;99.90
52709;DHT22;38606;52.986;6.980;2022-09-09T15:51:54;19.60;99.90
52709;DHT22;38606;52.986;6.980;2022-09-09T15:54:22;19.70;99.90
52709;DHT22;38606;52.986;6.980;2022-09-09T15:56:57;19.50;99.90
52709;DHT22;38606;52.986;6.980;2022-09-09T15:59:24;19.50;99.90
52709;DHT22;38606;52.986;6.980;2022-09-09T16:01:51;19.70;99.90
52709;DHT22;38606;52.986;6.980;2022-09-09T16:04:18;19.30;99.90
52709;DHT22;38606;52.986;6.980;2022-09-09T16:06:53;19.40;99.90
52709;DHT22;38606;52.986;6.980;2022-09-09T16:09:20;19.30;99.90
52709;DHT22;38606;52.986;6.980;2022-09-09T16:11:46;19.40;99.90
52709;DHT22;38606;52.986;6.980;2022-09-09T16:14:13;19.40;99.90
52709;DHT22;38606;52.986;6.980;2022-09-09T16:16:41;19.60;99.90
52709;DHT22;38606;52.986;6.980;2022-09-09T16:19:09;19.40;99.90
52709;DHT22;38606;52.986;6.980;2022-09-09T16:21:41;19.40;99.90
52709;DHT22;38606;52.986;6.980;2022-09-09T16:24:09;19.40;99.90
52709;DHT22;38606;52.986;6.980;2022-09-09T16:26:37;19.60;99.90
52709;DHT22;38606;52.986;6.980;2022-09-09T16:29:03;19.40;99.90
52709;DHT22;38606;52.986;6.980;2022-09-09T16:31:30;19.50;99.90
52709;DHT22;38606;52.986;6.980;2022-09-09T16:33:57;19.60;99.90
52709;DHT22;38606;52.986;6.980;2022-09-09T16:36:25;19.20;99.90
52709;DHT22;38606;52.986;6.980;2022-09-09T16:38:55;19.20;99.90
52709;DHT22;38606;52.986;6.980;2022-09-09T16:41:23;19.20;99.90
52709;DHT22;38606;52.986;6.980;2022-09-09T16:44:09;18.90;99.90
52709;DHT22;38606;52.986;6.980;2022-09-09T16:46:37;19.20;99.90
52709;DHT22;38606;52.986;6.980;2022-09-09T16:49:08;18.80;99.90
52709;DHT22;38606;52.986;6.980;2022-09-09T16:51:40;19.10;99.90
52709;DHT22;38606;52.986;6.980;2022-09-09T16:54:07;18.70;99.90
52709;DHT22;38606;52.986;6.980;2022-09-09T16:56:36;18.70;99.90
52709;DHT22;38606;52.986;6.980;2022-09-09T16:59:12;18.80;99.90
52709;DHT22;38606;52.986;6.980;2022-09-09T17:01:40;18.70;99.90
52709;DHT22;38606;52.986;6.980;2022-09-09T17:04:15;18.80;99.90
52709;DHT22;38606;52.986;6.980;2022-09-09T17:06:47;18.60;99.90
52709;DHT22;38606;52.986;6.980;2022-09-09T17:09:15;18.90;99.90
52709;DHT22;38606;52.986;6.980;2022-09-09T17:11:41;18.90;99.90
52709;DHT22;38606;52.986;6.980;2022-09-09T17:14:08;18.70;99.90
52709;DHT22;38606;52.986;6.980;2022-09-09T17:16:35;18.50;99.90
52709;DHT22;38606;52.986;6.980;2022-09-09T17:19:02;18.50;99.90
52709;DHT22;38606;52.986;6.980;2022-09-09T17:21:29;18.60;99.90
52709;DHT22;38606;52.986;6.980;2022-09-09T17:23:56;18.30;99.90
52709;DHT22;38606;52.986;6.980;2022-09-09T17:26:24;18.40;99.90
52709;DHT22;38606;52.986;6.980;2022-09-09T17:28:52;18.60;99.90
52709;DHT22;38606;52.986;6.980;2022-09-09T17:31:18;18.70;99.90
52709;DHT22;38606;52.986;6.980;2022-09-09T17:33:47;18.50;99.90
52709;DHT22;38606;52.986;6.980;2022-09-09T17:36:38;18.70;99.90
52709;DHT22;38606;52.986;6.980;2022-09-09T17:39:04;18.60;99.90
52709;DHT22;38606;52.986;6.980;2022-09-09T17:41:33;18.50;99.90
52709;DHT22;38606;52.986;6.980;2022-09-09T17:43:59;18.60;99.90
52709;DHT22;38606;52.986;6.980;2022-09-09T17:46:31;18.60;99.90
52709;DHT22;38606;52.986;6.980;2022-09-09T17:49:03;18.40;99.90
52709;DHT22;38606;52.986;6.980;2022-09-09T17:51:31;18.10;99.90
52709;DHT22;38606;52.986;6.980;2022-09-09T17:54:18;18.40;99.90
52709;DHT22;38606;52.986;6.980;2022-09-09T17:56:45;18.40;99.90
52709;DHT22;38606;52.986;6.980;2022-09-09T17:59:13;18.40;99.90
52709;DHT22;38606;52.986;6.980;2022-09-09T18:01:42;18.50;99.90